createdAt,value
2022-11-12T00:00:12.160Z,6.29
2022-11-12T00:02:57.730Z,6.23
2022-11-12T00:05:45.679Z,6.21
2022-11-12T00:08:30.916Z,6.32
2022-11-12T00:11:16.296Z,6.27
2022-11-12T00:14:01.498Z,6.24
2022-11-12T00:16:46.826Z,6.15
2022-11-12T00:19:32.373Z,6.18
2022-11-12T00:22:17.666Z,6.14
2022-11-12T00:25:04.014Z,6.18
2022-11-12T00:27:49.380Z,6.26
2022-11-12T00:30:37.039Z,6.21
2022-11-12T00:33:22.014Z,6.19
2022-11-12T00:36:07.558Z,6.16
2022-11-12T00:38:52.720Z,6.10
2022-11-12T00:41:38.021Z,6.07
2022-11-12T00:44:23.425Z,6.06
2022-11-12T00:47:08.740Z,6.05
2022-11-12T00:49:54.086Z,5.98
2022-11-12T00:52:39.463Z,5.97
2022-11-12T00:55:24.776Z,5.91
2022-11-12T00:58:10.147Z,5.89
2022-11-12T01:00:55.910Z,5.89
2022-11-12T01:03:42.438Z,5.90
2022-11-12T01:06:27.595Z,5.88
2022-11-12T01:09:13.014Z,5.85
2022-11-12T01:11:59.624Z,5.80
2022-11-12T01:14:44.662Z,5.80
2022-11-12T01:17:30.100Z,5.77
2022-11-12T01:20:15.307Z,5.75
2022-11-12T01:23:00.623Z,5.71
2022-11-12T01:25:46.052Z,5.68
2022-11-12T01:28:31.363Z,5.74
2022-11-12T01:31:18.457Z,5.73
2022-11-12T01:34:08.740Z,5.69
2022-11-12T01:36:54.037Z,5.70
2022-11-12T01:39:39.419Z,5.64
2022-11-12T01:42:30.021Z,5.69
2022-11-12T01:45:16.020Z,5.70
2022-11-12T01:48:02.493Z,5.61
2022-11-12T01:50:48.105Z,5.58
2022-11-12T01:53:38.585Z,5.52
2022-11-12T01:56:26.033Z,5.52
2022-11-12T01:59:17.246Z,5.66
2022-11-12T02:02:02.692Z,5.54
2022-11-12T02:04:49.237Z,5.61
2022-11-12T02:07:38.110Z,5.51
2022-11-12T02:10:23.459Z,5.49
2022-11-12T02:13:27.514Z,5.40
2022-11-12T02:16:12.773Z,5.28
2022-11-12T02:18:58.346Z,5.24
2022-11-12T02:21:44.002Z,5.23
2022-11-12T02:24:32.968Z,5.18
2022-11-12T02:27:18.596Z,5.18
2022-11-12T02:30:04.152Z,5.16
2022-11-12T02:32:49.518Z,5.24
2022-11-12T02:35:35.182Z,5.14
2022-11-12T02:38:20.582Z,5.14
2022-11-12T02:41:05.809Z,5.06
2022-11-12T02:43:51.126Z,5.08
2022-11-12T02:46:36.490Z,5.09
2022-11-12T02:49:21.775Z,5.11
2022-11-12T02:52:07.148Z,5.12
2022-11-12T02:54:52.755Z,5.02
2022-11-12T02:57:39.084Z,5.01
2022-11-12T03:00:24.466Z,4.95
2022-11-12T03:03:09.768Z,5.01
2022-11-12T03:05:58.429Z,4.90
2022-11-12T03:08:43.547Z,4.88
2022-11-12T03:11:28.965Z,4.88
2022-11-12T03:14:14.251Z,4.89
2022-11-12T03:16:59.660Z,4.95
2022-11-12T03:19:44.903Z,4.93
2022-11-12T03:22:30.315Z,4.93
2022-11-12T03:25:15.556Z,4.90
2022-11-12T03:28:05.813Z,4.87
2022-11-12T03:30:51.152Z,4.78
2022-11-12T03:33:36.496Z,4.79
2022-11-12T03:36:22.000Z,4.77
2022-11-12T03:39:07.232Z,4.74
2022-11-12T03:41:52.463Z,4.79
2022-11-12T03:44:37.711Z,4.75
2022-11-12T03:47:23.004Z,4.76
2022-11-12T03:50:10.366Z,4.74
2022-11-12T03:52:57.904Z,4.80
2022-11-12T03:55:43.126Z,4.95
2022-11-12T03:58:28.676Z,4.95
2022-11-12T04:01:14.288Z,4.93
2022-11-12T04:03:59.474Z,4.91
2022-11-12T04:07:03.417Z,4.88
2022-11-12T04:09:48.684Z,4.87
2022-11-12T04:12:52.687Z,4.77
2022-11-12T04:15:38.014Z,4.76
2022-11-12T04:18:43.582Z,4.72
2022-11-12T04:21:55.633Z,4.57
2022-11-12T04:25:00.921Z,4.53
2022-11-12T04:27:46.144Z,4.51
2022-11-12T04:30:31.518Z,4.65
2022-11-12T04:33:16.708Z,4.64
2022-11-12T04:36:02.090Z,4.58
2022-11-12T04:38:47.458Z,4.47
2022-11-12T04:41:51.109Z,4.40
2022-11-12T04:44:54.755Z,4.34
2022-11-12T04:47:44.018Z,4.30
2022-11-12T04:50:29.393Z,4.31
2022-11-12T04:53:15.252Z,4.20
2022-11-12T04:56:00.706Z,4.17
2022-11-12T04:58:46.702Z,4.32
2022-11-12T05:01:32.085Z,4.39
2022-11-12T05:04:17.309Z,4.34
2022-11-12T05:07:02.643Z,4.33
2022-11-12T05:09:48.337Z,4.35
2022-11-12T05:12:33.310Z,4.47
2022-11-12T05:15:18.993Z,4.53
2022-11-12T05:18:04.298Z,4.45
2022-11-12T05:20:51.478Z,4.44
2022-11-12T05:23:36.754Z,4.61
2022-11-12T05:26:22.151Z,4.59
2022-11-12T05:29:08.967Z,4.51
2022-11-12T05:31:55.034Z,4.61
2022-11-12T05:34:40.394Z,4.55
2022-11-12T05:37:25.865Z,4.54
2022-11-12T05:40:11.609Z,4.46
2022-11-12T05:42:56.742Z,4.49
2022-11-12T05:45:45.191Z,4.46
2022-11-12T05:48:31.754Z,4.55
2022-11-12T05:51:17.402Z,4.66
2022-11-12T05:54:03.593Z,4.60
2022-11-12T05:56:48.878Z,4.55
2022-11-12T05:59:34.245Z,4.59
2022-11-12T06:02:19.598Z,4.51
2022-11-12T06:05:05.381Z,4.53
2022-11-12T06:07:50.370Z,4.50
2022-11-12T06:10:35.626Z,4.53
2022-11-12T06:13:22.839Z,4.48
2022-11-12T06:16:08.447Z,4.52
2022-11-12T06:18:53.835Z,4.57
2022-11-12T06:21:39.217Z,4.55
2022-11-12T06:24:27.565Z,4.68
2022-11-12T06:27:16.066Z,4.71
2022-11-12T06:30:01.382Z,4.76
2022-11-12T06:32:50.700Z,4.88
2022-11-12T06:35:39.106Z,4.98
2022-11-12T06:38:28.272Z,5.03
2022-11-12T06:41:14.669Z,5.02
2022-11-12T06:43:59.770Z,5.05
2022-11-12T06:46:45.142Z,5.06
2022-11-12T06:49:30.805Z,5.08
2022-11-12T06:52:16.808Z,5.21
2022-11-12T06:55:01.991Z,5.28
2022-11-12T06:57:52.446Z,5.46
2022-11-12T07:00:38.022Z,5.60
2022-11-12T07:03:23.389Z,5.68
2022-11-12T07:06:11.357Z,5.80
2022-11-12T07:08:56.891Z,5.96
2022-11-12T07:11:41.976Z,6.11
2022-11-12T07:14:27.406Z,6.22
2022-11-12T07:17:12.554Z,6.38
2022-11-12T07:20:03.231Z,6.53
2022-11-12T07:22:49.072Z,6.72
2022-11-12T07:25:34.365Z,6.92
2022-11-12T07:28:19.754Z,7.08
2022-11-12T07:31:07.427Z,7.16
2022-11-12T07:33:52.712Z,7.26
2022-11-12T07:36:37.993Z,7.36
2022-11-12T07:39:23.255Z,7.48
2022-11-12T07:42:08.509Z,7.49
2022-11-12T07:44:53.866Z,7.43
2022-11-12T07:47:39.313Z,7.40
2022-11-12T07:50:24.629Z,7.31
2022-11-12T07:53:10.345Z,7.30
2022-11-12T07:55:57.782Z,7.21
2022-11-12T07:58:43.169Z,7.14
2022-11-12T08:01:40.608Z,7.10
2022-11-12T08:04:26.142Z,6.95
2022-11-12T08:07:11.454Z,6.78
2022-11-12T08:09:56.744Z,6.64
2022-11-12T08:12:41.962Z,6.74
2022-11-12T08:15:27.213Z,6.73
2022-11-12T08:18:12.452Z,6.82
2022-11-12T08:21:02.821Z,6.83
2022-11-12T08:23:48.361Z,6.93
2022-11-12T08:26:33.920Z,6.82
2022-11-12T08:29:19.142Z,6.77
2022-11-12T08:32:04.650Z,6.77
2022-11-12T08:34:49.949Z,6.83
2022-11-12T08:37:35.217Z,6.86
2022-11-12T08:40:20.537Z,7.05
2022-11-12T08:43:08.241Z,7.17
2022-11-12T08:45:53.496Z,7.28
2022-11-12T08:48:40.227Z,7.39
2022-11-12T08:51:25.858Z,7.41
2022-11-12T08:54:11.365Z,7.52
2022-11-12T08:56:56.585Z,7.72
2022-11-12T08:59:41.938Z,7.87
2022-11-12T09:02:27.292Z,8.01
2022-11-12T09:05:12.625Z,8.08
2022-11-12T09:08:04.001Z,7.94
2022-11-12T09:10:49.887Z,7.99
2022-11-12T09:13:35.689Z,8.08
2022-11-12T09:16:21.577Z,8.01
2022-11-12T09:19:06.648Z,8.02
2022-11-12T09:21:51.870Z,8.11
2022-11-12T09:24:37.237Z,8.29
2022-11-12T09:27:22.530Z,8.63
2022-11-12T09:30:08.486Z,8.88
2022-11-12T09:32:58.020Z,9.26
2022-11-12T09:35:43.694Z,9.44
2022-11-12T09:38:30.005Z,9.64
2022-11-12T09:41:38.572Z,9.83
2022-11-12T09:44:24.492Z,9.98
2022-11-12T09:47:18.754Z,9.99
2022-11-12T09:50:20.413Z,10.24
2022-11-12T09:53:33.374Z,10.25
2022-11-12T09:56:21.748Z,10.45
2022-11-12T09:59:14.186Z,10.47
2022-11-12T10:02:28.725Z,10.42
2022-11-12T10:05:33.527Z,10.39
2022-11-12T10:08:26.188Z,10.35
2022-11-12T10:12:04.318Z,10.23
2022-11-12T10:15:27.376Z,10.10
2022-11-12T10:18:24.752Z,10.03
2022-11-12T10:21:45.540Z,9.94
2022-11-12T10:24:36.504Z,9.87
2022-11-12T10:27:26.225Z,9.96
2022-11-12T10:30:23.936Z,9.89
2022-11-12T10:33:14.927Z,9.84
2022-11-12T10:36:31.150Z,9.80
2022-11-12T10:39:33.515Z,9.73
2022-11-12T10:42:21.472Z,9.72
2022-11-12T10:45:21.137Z,9.74
2022-11-12T10:48:26.795Z,9.77
2022-11-12T10:51:28.534Z,9.79
2022-11-12T10:54:37.529Z,9.80
2022-11-12T10:57:27.319Z,9.86
2022-11-12T11:00:12.577Z,9.95
2022-11-12T11:02:59.206Z,10.00
2022-11-12T11:05:55.161Z,10.05
2022-11-12T11:08:52.095Z,10.03
2022-11-12T11:11:37.500Z,10.07
2022-11-12T11:14:22.277Z,10.07
2022-11-12T11:17:18.645Z,10.13
2022-11-12T11:20:19.056Z,10.11
2022-11-12T11:23:17.526Z,10.12
2022-11-12T11:26:32.801Z,10.14
2022-11-12T11:29:42.271Z,10.13
2022-11-12T11:32:48.169Z,10.12
2022-11-12T11:35:58.998Z,10.17
2022-11-12T11:39:02.430Z,10.29
2022-11-12T11:41:53.951Z,10.29
2022-11-12T11:44:57.198Z,10.33
2022-11-12T11:48:00.589Z,10.27
2022-11-12T11:51:14.325Z,10.22
2022-11-12T11:54:17.139Z,10.17
2022-11-12T11:57:10.803Z,10.12
2022-11-12T12:00:11.711Z,10.08
2022-11-12T12:03:18.133Z,10.16
2022-11-12T12:06:10.785Z,10.08
2022-11-12T12:09:42.524Z,10.02
2022-11-12T12:12:53.519Z,9.94
2022-11-12T12:15:57.158Z,9.90
2022-11-12T12:18:59.535Z,9.89
2022-11-12T12:21:49.756Z,9.86
2022-11-12T12:24:52.947Z,9.90
2022-11-12T12:27:57.700Z,9.85
2022-11-12T12:30:48.316Z,9.87
2022-11-12T12:33:40.480Z,9.85
2022-11-12T12:36:37.847Z,9.87
2022-11-12T12:39:27.196Z,9.89
2022-11-12T12:42:22.621Z,9.92
2022-11-12T12:45:35.793Z,10.00
2022-11-12T12:48:42.032Z,10.02
2022-11-12T12:51:32.809Z,9.99
2022-11-12T12:54:55.435Z,10.04
2022-11-12T12:57:40.840Z,10.00
2022-11-12T13:00:34.431Z,9.96
2022-11-12T13:03:42.963Z,9.97
2022-11-12T13:06:33.632Z,9.97
2022-11-12T13:09:18.746Z,9.96
2022-11-12T13:12:06.722Z,9.95
2022-11-12T13:15:07.854Z,9.96
2022-11-12T13:17:53.014Z,9.97
2022-11-12T13:20:42.502Z,9.97
2022-11-12T13:24:07.560Z,9.95
2022-11-12T13:26:58.087Z,9.95
2022-11-12T13:29:44.458Z,9.90
2022-11-12T13:32:35.751Z,9.95
2022-11-12T13:35:27.087Z,9.96
2022-11-12T13:38:15.889Z,9.97
2022-11-12T13:41:14.900Z,9.95
2022-11-12T13:44:06.258Z,9.92
2022-11-12T13:46:53.588Z,9.88
2022-11-12T13:49:38.647Z,9.88
2022-11-12T13:52:24.904Z,9.92
2022-11-12T13:55:17.578Z,9.90
2022-11-12T13:58:02.815Z,9.95
2022-11-12T14:01:00.244Z,9.93
2022-11-12T14:03:49.191Z,9.90
2022-11-12T14:06:52.409Z,9.79
2022-11-12T14:10:02.916Z,9.69
2022-11-12T14:13:15.709Z,9.62
2022-11-12T14:16:08.839Z,9.63
2022-11-12T14:19:06.122Z,9.58
2022-11-12T14:22:10.621Z,9.54
2022-11-12T14:25:01.010Z,9.50
2022-11-12T14:27:49.067Z,9.50
2022-11-12T14:30:34.297Z,9.49
2022-11-12T14:33:22.150Z,9.49
2022-11-12T14:36:14.348Z,9.48
2022-11-12T14:39:00.090Z,9.43
2022-11-12T14:41:49.291Z,9.41
2022-11-12T14:44:36.976Z,9.47
2022-11-12T14:47:23.176Z,9.39
2022-11-12T14:50:40.260Z,9.37
2022-11-12T14:53:33.032Z,9.34
2022-11-12T14:56:35.387Z,9.29
2022-11-12T14:59:21.088Z,9.28
2022-11-12T15:05:20.470Z,9.24
2022-11-12T15:08:12.152Z,9.22
2022-11-12T15:11:20.300Z,9.23
2022-11-12T15:14:19.592Z,9.24
2022-11-12T15:17:06.071Z,9.24
2022-11-12T15:19:51.986Z,9.21
2022-11-12T15:22:37.124Z,9.20
2022-11-12T15:25:32.546Z,9.19
2022-11-12T15:28:25.993Z,9.19
2022-11-12T15:31:22.091Z,9.18
2022-11-12T15:34:39.491Z,9.18
2022-11-12T15:37:27.853Z,9.20
2022-11-12T15:40:18.733Z,9.21
2022-11-12T15:43:14.108Z,9.18
2022-11-12T15:45:59.551Z,9.17
2022-11-12T15:48:54.444Z,9.13
2022-11-12T15:51:41.386Z,9.15
2022-11-12T15:54:26.908Z,9.12
2022-11-12T15:57:25.334Z,9.13
2022-11-12T16:00:30.519Z,9.11
2022-11-12T16:03:18.871Z,9.10
2022-11-12T16:06:09.061Z,9.13
2022-11-12T16:08:54.612Z,9.10
2022-11-12T16:11:40.191Z,9.15
2022-11-12T16:14:25.473Z,9.11
2022-11-12T16:17:18.486Z,9.10
2022-11-12T16:20:13.382Z,9.08
2022-11-12T16:22:59.345Z,9.09
2022-11-12T16:25:45.351Z,9.09
2022-11-12T16:28:30.345Z,9.11
2022-11-12T16:31:15.803Z,9.11
2022-11-12T16:34:01.099Z,9.10
2022-11-12T16:36:47.486Z,9.09
2022-11-12T16:39:33.380Z,9.07
2022-11-12T16:42:18.610Z,9.09
2022-11-12T16:45:04.296Z,9.08
2022-11-12T16:47:53.986Z,9.07
2022-11-12T16:50:39.353Z,9.06
2022-11-12T16:53:24.667Z,9.07
2022-11-12T16:56:12.754Z,9.07
2022-11-12T16:58:58.001Z,9.08
2022-11-12T17:01:44.296Z,9.07
2022-11-12T17:04:29.693Z,9.07
2022-11-12T17:07:14.976Z,9.06
2022-11-12T17:10:00.304Z,9.05
2022-11-12T17:12:49.108Z,9.05
2022-11-12T17:15:34.169Z,9.08
2022-11-12T17:18:19.390Z,9.07
2022-11-12T17:21:16.465Z,9.04
2022-11-12T17:24:01.720Z,9.03
2022-11-12T17:26:47.159Z,9.02
2022-11-12T17:29:32.981Z,9.06
2022-11-12T17:32:18.083Z,9.03
2022-11-12T17:35:03.686Z,9.00
2022-11-12T17:37:48.806Z,9.01
2022-11-12T17:40:34.227Z,9.01
2022-11-12T17:43:19.473Z,8.99
2022-11-12T17:46:06.972Z,9.02
2022-11-12T17:48:52.616Z,8.94
2022-11-12T17:51:38.041Z,8.91
2022-11-12T17:54:23.253Z,8.86
2022-11-12T17:57:08.766Z,8.93
2022-11-12T17:59:54.134Z,8.94
2022-11-12T18:02:39.542Z,8.88
2022-11-12T18:05:25.394Z,8.86
2022-11-12T18:08:10.630Z,8.82
2022-11-12T18:10:56.060Z,8.77
2022-11-12T18:13:41.324Z,8.74
2022-11-12T18:16:28.788Z,8.75
2022-11-12T18:19:14.381Z,8.74
2022-11-12T18:21:59.832Z,8.70
2022-11-12T18:24:46.404Z,8.71
2022-11-12T18:27:31.807Z,8.79
2022-11-12T18:30:19.532Z,8.65
2022-11-12T18:33:05.521Z,8.66
2022-11-12T18:36:00.796Z,8.66
2022-11-12T18:38:48.339Z,8.68
2022-11-12T18:41:34.281Z,8.70
2022-11-12T18:44:24.773Z,8.77
2022-11-12T18:47:11.055Z,8.64
2022-11-12T18:49:56.252Z,8.63
2022-11-12T18:52:41.882Z,8.56
2022-11-12T18:55:27.078Z,8.56
2022-11-12T18:58:12.460Z,8.52
2022-11-12T19:01:05.569Z,8.43
2022-11-12T19:03:55.565Z,8.38
2022-11-12T19:06:41.280Z,8.25
2022-11-12T19:09:26.676Z,8.16
2022-11-12T19:12:11.889Z,8.04
2022-11-12T19:14:57.031Z,7.89
2022-11-12T19:17:42.855Z,7.92
2022-11-12T19:20:29.217Z,7.84
2022-11-12T19:23:14.462Z,7.78
2022-11-12T19:26:01.076Z,7.62
2022-11-12T19:28:46.011Z,7.50
2022-11-12T19:31:34.228Z,7.43
2022-11-12T19:34:19.432Z,7.23
2022-11-12T19:37:33.045Z,7.19
2022-11-12T19:40:10.928Z,7.12
2022-11-12T19:42:56.283Z,6.94
2022-11-12T19:45:41.577Z,6.90
2022-11-12T19:48:27.307Z,6.81
2022-11-12T19:51:13.743Z,6.76
2022-11-12T19:53:59.311Z,6.74
2022-11-12T19:56:44.814Z,6.60
2022-11-12T19:59:30.222Z,6.73
2022-11-12T20:02:15.597Z,6.71
2022-11-12T20:05:00.945Z,6.70
2022-11-12T20:07:48.974Z,6.53
2022-11-12T20:10:33.977Z,6.49
2022-11-12T20:13:19.440Z,6.49
2022-11-12T20:16:23.933Z,6.37
2022-11-12T20:19:10.763Z,6.21
2022-11-12T20:21:56.030Z,6.27
2022-11-12T20:24:41.177Z,6.45
2022-11-12T20:27:26.545Z,6.43
2022-11-12T20:30:12.266Z,6.35
2022-11-12T20:32:57.414Z,6.29
2022-11-12T20:35:42.684Z,6.30
2022-11-12T20:38:28.567Z,6.24
2022-11-12T20:41:20.156Z,6.06
2022-11-12T20:44:05.621Z,6.03
2022-11-12T20:46:50.634Z,5.96
2022-11-12T20:49:36.025Z,5.94
2022-11-12T20:52:21.226Z,5.97
2022-11-12T20:55:06.968Z,5.93
2022-11-12T20:57:52.589Z,5.95
2022-11-12T21:00:38.944Z,5.97
2022-11-12T21:03:24.249Z,5.93
2022-11-12T21:06:15.162Z,5.91
2022-11-12T21:09:00.638Z,5.89
2022-11-12T21:11:46.022Z,5.98
2022-11-12T21:14:31.299Z,6.03
2022-11-12T21:17:16.704Z,5.99
2022-11-12T21:20:01.849Z,5.97
2022-11-12T21:22:47.180Z,5.98
2022-11-12T21:25:36.944Z,6.02
2022-11-12T21:28:22.289Z,5.99
2022-11-12T21:31:10.026Z,6.02
2022-11-12T21:33:58.710Z,5.92
2022-11-12T21:36:44.009Z,5.86
2022-11-12T21:39:29.311Z,5.75
2022-11-12T21:42:14.708Z,5.77
2022-11-12T21:44:59.930Z,5.81
2022-11-12T21:47:45.173Z,5.79
2022-11-12T21:50:30.582Z,5.77
2022-11-12T21:53:15.773Z,5.80
2022-11-12T21:56:05.644Z,5.86
2022-11-12T21:58:53.291Z,5.86
2022-11-12T22:01:40.554Z,5.87
2022-11-12T22:04:25.691Z,5.86
2022-11-12T22:07:10.998Z,5.85
2022-11-12T22:09:56.994Z,5.74
2022-11-12T22:12:58.685Z,5.68
2022-11-12T22:15:50.592Z,5.63
2022-11-12T22:18:36.575Z,5.51
2022-11-12T22:21:36.983Z,5.31
2022-11-12T22:24:24.027Z,5.31
2022-11-12T22:27:09.162Z,5.23
2022-11-12T22:29:54.321Z,5.20
2022-11-12T22:32:39.711Z,5.02
2022-11-12T22:35:25.093Z,4.91
2022-11-12T22:38:10.642Z,4.82
2022-11-12T22:41:01.808Z,4.66
2022-11-12T22:43:48.007Z,4.61
2022-11-12T22:46:35.046Z,4.51
2022-11-12T22:49:20.045Z,4.41
2022-11-12T22:52:05.243Z,4.28
2022-11-12T22:54:50.754Z,4.30
2022-11-12T22:57:36.079Z,4.47
2022-11-12T23:00:29.699Z,4.67
2022-11-12T23:03:14.712Z,4.71
2022-11-12T23:06:03.172Z,4.78
2022-11-12T23:08:49.168Z,4.95
2022-11-12T23:11:37.619Z,5.02
2022-11-12T23:14:23.242Z,5.06
2022-11-12T23:17:08.404Z,5.14
2022-11-12T23:19:53.744Z,5.22
2022-11-12T23:22:39.121Z,5.34
2022-11-12T23:25:24.372Z,5.39
2022-11-12T23:28:09.640Z,5.42
2022-11-12T23:30:55.047Z,5.45
2022-11-12T23:33:45.148Z,5.50
2022-11-12T23:36:31.443Z,5.54
2022-11-12T23:39:16.394Z,5.58
2022-11-12T23:42:01.613Z,5.62
2022-11-12T23:44:46.895Z,5.68
2022-11-12T23:47:32.187Z,5.79
2022-11-12T23:50:17.562Z,5.85
2022-11-12T23:53:02.625Z,5.98
2022-11-12T23:55:47.867Z,6.06
2022-11-12T23:58:33.367Z,6.10
